Accueil
METAR-TAF:

METAR-TAF

Aéroports :

Aéroport international Léopold-Sédar-Senghor

Dakar, Sénégal

latitude: 14-44N, longitude: 017-30W, altitude: 27 m

Observation

Le bulletin a été fait il y a 1 heure et 5 minutes, à 17:00 UTC
Vent 12 kt de nord-ouest
Température 26°C
Humidité 74%
Pression 1014 hPa
Visibilité 10 km ou plus
Quelques nuages à une hauteur de 1500 ft
Nuages épars à une hauteur de 23000 ft

METAR: GOOY 191700Z 32012KT 9999 FEW015 SCT230 26/21 Q1014

Heure: 18:05 (18:05 UTC)

Prévision

Le bulletin a été fait il y a 35 minutes, à 17:30 UTC
Prévision valable du 19 à 18 UTC au 20 à 24 UTC
Vent 10 kt de nord/nord-ouest
Visibilité 10 km ou plus
Nuages épars à une hauteur de 1200 ft
Temporairement
du 20 à 02 UTC au 20 à 08 UTC
Nuages fragmentés à une hauteur de 800 ft

TAF: GOOY 191730Z 1918/2024 34010KT 9999 SCT012 TEMPO 2002/2008 BKN008

Observations et prévisions météorologiques de plus de 4000 aéroports (messages METAR et TAF).

Les stations disponibles sont représentées par des disques jaunes et rouges sur la carte.

Passer la souris dessus pour voir le nom de la station.

Cliquer dessus pour voir les observations et prévisions météorologiques.

Pour changer de carte: cliquez sur les boutons verts avec une croix noire pour zoomer, sur le bouton vert avec un tiret pour effectuer un zoom arrière, ou sur les flèches vertes pour les cartes adjacentes.


METAR-TAF: